createdAt,value
2023-05-10T00:00:25.002Z,20.21
2023-05-10T00:02:51.771Z,20.21
2023-05-10T00:05:18.680Z,20.20
2023-05-10T00:07:48.395Z,20.20
2023-05-10T00:10:15.324Z,20.21
2023-05-10T00:12:43.439Z,20.22
2023-05-10T00:15:10.440Z,20.20
2023-05-10T00:17:37.007Z,20.21
2023-05-10T00:20:05.880Z,20.20
2023-05-10T00:22:33.229Z,20.20
2023-05-10T00:25:00.022Z,20.19
2023-05-10T00:27:26.633Z,20.19
2023-05-10T00:29:53.186Z,20.19
2023-05-10T00:32:19.798Z,20.20
2023-05-10T00:34:46.384Z,20.19
2023-05-10T00:37:12.952Z,20.19
2023-05-10T00:39:39.459Z,20.20
2023-05-10T00:42:06.152Z,20.18
2023-05-10T00:44:32.733Z,20.18
2023-05-10T00:47:00.619Z,20.18
2023-05-10T00:49:27.273Z,20.18
2023-05-10T00:51:54.130Z,20.18
2023-05-10T00:54:20.958Z,20.18
2023-05-10T00:56:49.934Z,20.17
2023-05-10T00:59:18.146Z,20.17
2023-05-10T01:01:48.636Z,20.16
2023-05-10T01:04:16.202Z,20.14
2023-05-10T01:06:43.612Z,20.14
2023-05-10T01:09:12.698Z,20.13
2023-05-10T01:11:40.893Z,20.13
2023-05-10T01:14:08.032Z,20.11
2023-05-10T01:16:38.176Z,20.12
2023-05-10T01:19:18.105Z,20.10
2023-05-10T01:22:00.926Z,20.07
2023-05-10T01:24:39.375Z,20.07
2023-05-10T01:27:28.912Z,20.03
2023-05-10T01:30:16.178Z,20.02
2023-05-10T01:32:59.607Z,20.00
2023-05-10T01:35:58.101Z,19.99
2023-05-10T01:38:49.074Z,19.92
2023-05-10T01:41:49.404Z,19.97
2023-05-10T01:44:51.153Z,19.95
2023-05-10T01:47:37.337Z,19.76
2023-05-10T01:50:14.491Z,19.93
2023-05-10T01:52:58.287Z,19.87
2023-05-10T01:56:11.415Z,19.80
2023-05-10T01:58:53.906Z,19.81
2023-05-10T02:01:37.678Z,19.71
2023-05-10T02:04:20.439Z,19.67
2023-05-10T02:07:05.283Z,19.66
2023-05-10T02:09:52.421Z,19.69
2023-05-10T02:12:28.888Z,19.65
2023-05-10T02:15:05.265Z,19.67
2023-05-10T02:23:37.286Z,19.65
2023-05-10T02:26:35.113Z,19.64
2023-05-10T02:29:33.522Z,19.66
2023-05-10T02:32:13.688Z,19.55
2023-05-10T02:34:56.664Z,19.58
2023-05-10T02:37:43.629Z,19.64
2023-05-10T02:40:34.369Z,19.62
2023-05-10T02:43:34.508Z,19.56
2023-05-10T02:46:14.886Z,19.55
2023-05-10T02:49:10.354Z,19.65
2023-05-10T02:51:51.980Z,19.54
2023-05-10T02:54:51.874Z,19.53
2023-05-10T02:57:36.716Z,19.54
2023-05-10T03:00:23.811Z,19.53
2023-05-10T03:03:01.017Z,19.61
2023-05-10T03:08:22.708Z,19.54
2023-05-10T03:11:39.630Z,19.64
2023-05-10T03:14:34.615Z,19.61
2023-05-10T03:17:40.169Z,19.44
2023-05-10T03:20:45.180Z,19.44
2023-05-10T03:23:37.783Z,19.39
2023-05-10T03:35:17.969Z,19.33
2023-05-10T03:40:58.278Z,19.24
2023-05-10T03:44:12.477Z,19.31
2023-05-10T03:46:50.584Z,19.27
2023-05-10T03:49:19.729Z,19.32
2023-05-10T03:53:16.222Z,19.18
2023-05-10T03:58:07.479Z,19.22
2023-05-10T04:01:00.961Z,19.21
2023-05-10T04:03:37.012Z,19.24
2023-05-10T04:06:26.404Z,19.21
2023-05-10T04:09:01.883Z,19.13
2023-05-10T04:14:12.271Z,19.29
2023-05-10T04:19:39.130Z,19.15
2023-05-10T04:22:19.306Z,19.23
2023-05-10T04:24:56.559Z,19.17
2023-05-10T04:27:33.621Z,19.10
2023-05-10T04:30:27.356Z,19.05
2023-05-10T04:33:14.794Z,19.08
2023-05-10T04:35:54.424Z,19.02
2023-05-10T04:39:20.607Z,19.07
2023-05-10T04:41:50.112Z,19.03
2023-05-10T04:44:19.495Z,18.97
2023-05-10T04:46:56.585Z,19.04
2023-05-10T04:49:38.347Z,18.94
2023-05-10T04:52:09.879Z,19.02
2023-05-10T04:54:55.190Z,18.91
2023-05-10T04:57:31.125Z,18.98
2023-05-10T05:00:00.365Z,18.97
2023-05-10T05:02:29.538Z,19.01
2023-05-10T05:05:04.390Z,18.95
2023-05-10T05:10:46.765Z,18.88
2023-05-10T05:16:14.572Z,18.94
2023-05-10T05:18:43.815Z,18.97
2023-05-10T05:21:30.745Z,19.05
2023-05-10T05:24:03.398Z,19.01
2023-05-10T05:26:48.061Z,19.15
2023-05-10T05:29:33.131Z,19.20
2023-05-10T05:32:02.830Z,19.14
2023-05-10T05:37:28.067Z,19.16
2023-05-10T05:40:12.491Z,19.17
2023-05-10T05:42:54.960Z,19.17
2023-05-10T05:45:27.786Z,19.30
2023-05-10T05:48:13.916Z,19.19
2023-05-10T05:50:46.849Z,19.29
2023-05-10T05:53:20.978Z,19.23
2023-05-10T05:56:40.655Z,19.29
2023-05-10T05:59:10.172Z,19.27
2023-05-10T06:01:46.586Z,19.31
2023-05-10T06:04:34.286Z,19.33
2023-05-10T06:10:46.886Z,19.26
2023-05-10T06:13:21.007Z,19.43
2023-05-10T06:15:50.380Z,19.34
2023-05-10T06:18:27.865Z,19.35
2023-05-10T06:23:48.075Z,19.31
2023-05-10T06:29:15.894Z,19.29
2023-05-10T06:31:57.427Z,19.38
2023-05-10T06:40:06.424Z,19.45
2023-05-10T06:42:33.197Z,19.38
2023-05-10T06:44:59.756Z,19.36
2023-05-10T06:47:26.301Z,19.31
2023-05-10T06:49:53.026Z,19.33
2023-05-10T06:52:19.629Z,19.31
2023-05-10T06:54:46.240Z,19.28
2023-05-10T06:57:23.370Z,19.25
2023-05-10T06:59:58.026Z,19.23
2023-05-10T07:02:24.619Z,19.25
2023-05-10T07:04:52.905Z,19.19
2023-05-10T07:07:20.002Z,19.25
2023-05-10T07:09:46.839Z,19.18
2023-05-10T07:12:15.343Z,19.21
2023-05-10T07:14:42.766Z,19.19
2023-05-10T07:17:09.473Z,19.17
2023-05-10T07:19:36.415Z,19.17
2023-05-10T07:22:03.109Z,19.17
2023-05-10T07:24:29.664Z,19.16
2023-05-10T07:26:56.205Z,19.15
2023-05-10T07:29:22.781Z,19.16
2023-05-10T07:31:49.385Z,19.11
2023-05-10T07:34:15.978Z,19.17
2023-05-10T07:36:42.805Z,19.15
2023-05-10T07:39:09.569Z,19.15
2023-05-10T07:41:36.297Z,19.13
2023-05-10T07:44:02.842Z,19.11
2023-05-10T07:46:29.597Z,19.09
2023-05-10T07:48:56.570Z,19.14
2023-05-10T07:51:23.266Z,19.11
2023-05-10T07:53:49.846Z,19.11
2023-05-10T07:56:28.123Z,19.17
2023-05-10T07:58:55.366Z,19.16
2023-05-10T08:01:22.539Z,19.16
2023-05-10T08:03:49.775Z,19.17
2023-05-10T08:06:16.661Z,19.22
2023-05-10T08:08:43.353Z,19.19
2023-05-10T08:11:10.046Z,19.22
2023-05-10T08:13:36.632Z,19.24
2023-05-10T08:16:03.463Z,19.22
2023-05-10T08:18:30.193Z,19.22
2023-05-10T08:20:56.849Z,19.21
2023-05-10T08:23:23.489Z,19.17
2023-05-10T08:25:50.066Z,19.20
2023-05-10T08:28:16.714Z,19.21
2023-05-10T08:30:43.403Z,19.22
2023-05-10T08:33:10.067Z,19.18
2023-05-10T08:35:36.948Z,19.20
2023-05-10T08:38:03.555Z,19.17
2023-05-10T08:40:30.156Z,19.18
2023-05-10T08:43:05.723Z,19.21
2023-05-10T08:45:34.659Z,19.22
2023-05-10T08:48:03.030Z,19.23
2023-05-10T08:50:31.173Z,19.22
2023-05-10T08:53:01.276Z,19.23
2023-05-10T08:55:28.706Z,19.26
2023-05-10T08:57:55.863Z,19.25
2023-05-10T09:00:24.043Z,19.23
2023-05-10T09:02:51.399Z,19.24
2023-05-10T09:05:18.894Z,19.25
2023-05-10T09:07:45.947Z,19.26
2023-05-10T09:10:14.253Z,19.24
2023-05-10T09:12:41.435Z,19.22
2023-05-10T09:15:10.200Z,19.25
2023-05-10T09:17:37.586Z,19.24
2023-05-10T09:20:05.305Z,19.29
2023-05-10T09:22:32.668Z,19.29
2023-05-10T09:25:06.384Z,19.30
2023-05-10T09:27:33.259Z,19.23
2023-05-10T09:29:59.780Z,19.29
2023-05-10T09:32:42.602Z,19.27
2023-05-10T09:35:15.013Z,19.29
2023-05-10T09:37:43.977Z,19.29
2023-05-10T09:40:16.414Z,19.23
2023-05-10T09:42:51.873Z,19.30
2023-05-10T09:45:18.778Z,19.25
2023-05-10T09:47:46.996Z,19.22
2023-05-10T09:50:13.866Z,19.26
2023-05-10T09:52:49.301Z,19.27
2023-05-10T09:55:17.230Z,19.29
2023-05-10T09:57:44.174Z,19.26
2023-05-10T10:00:11.358Z,19.26
2023-05-10T10:02:38.123Z,19.26
2023-05-10T10:05:07.410Z,19.25
2023-05-10T10:07:35.195Z,19.28
2023-05-10T10:10:01.834Z,19.26
2023-05-10T10:12:29.001Z,19.21
2023-05-10T10:14:57.102Z,19.21
2023-05-10T10:17:28.714Z,19.21
2023-05-10T10:19:56.485Z,19.21
2023-05-10T10:22:23.073Z,19.30
2023-05-10T10:24:51.353Z,19.24
2023-05-10T10:27:23.610Z,19.30
2023-05-10T10:30:27.826Z,19.31
2023-05-10T10:33:10.200Z,19.31
2023-05-10T10:35:44.846Z,19.29
2023-05-10T10:38:14.061Z,19.29
2023-05-10T10:40:41.235Z,19.31
2023-05-10T10:43:27.021Z,19.35
2023-05-10T10:46:18.455Z,19.30
2023-05-10T10:48:50.811Z,19.29
2023-05-10T10:51:17.627Z,19.30
2023-05-10T10:53:44.750Z,19.37
2023-05-10T10:56:16.120Z,19.38
2023-05-10T10:58:54.711Z,19.34
2023-05-10T11:01:21.641Z,19.36
2023-05-10T11:04:03.684Z,19.40
2023-05-10T11:06:34.690Z,19.38
2023-05-10T11:09:08.222Z,19.32
2023-05-10T11:11:36.158Z,19.34
2023-05-10T11:14:08.036Z,19.41
2023-05-10T11:16:45.076Z,19.41
2023-05-10T11:19:13.538Z,19.37
2023-05-10T11:21:47.950Z,19.33
2023-05-10T11:24:20.119Z,19.40
2023-05-10T11:26:47.210Z,19.39
2023-05-10T11:29:14.895Z,19.33
2023-05-10T11:31:48.617Z,19.38
2023-05-10T11:34:34.341Z,19.35
2023-05-10T11:37:01.685Z,19.35
2023-05-10T11:39:29.705Z,19.40
2023-05-10T11:41:56.371Z,19.36
2023-05-10T11:44:23.180Z,19.34
2023-05-10T11:46:50.563Z,19.33
2023-05-10T11:49:17.306Z,19.35
2023-05-10T11:51:44.654Z,19.37
2023-05-10T11:54:12.621Z,19.40
2023-05-10T11:59:26.247Z,19.42
2023-05-10T12:01:52.967Z,19.48
2023-05-10T12:04:20.128Z,19.51
2023-05-10T12:06:47.641Z,19.56
2023-05-10T12:09:15.760Z,19.59
2023-05-10T12:11:44.243Z,19.51
2023-05-10T12:14:11.668Z,19.58
2023-05-10T12:16:38.260Z,19.57
2023-05-10T12:19:05.008Z,19.58
2023-05-10T12:21:31.918Z,19.53
2023-05-10T12:24:04.040Z,19.59
2023-05-10T12:26:30.934Z,19.57
2023-05-10T12:29:13.807Z,19.57
2023-05-10T12:31:58.351Z,19.61
2023-05-10T12:34:26.221Z,19.62
2023-05-10T12:36:56.815Z,19.65
2023-05-10T12:39:23.563Z,19.65
2023-05-10T12:41:50.358Z,19.65
2023-05-10T12:44:16.998Z,19.63
2023-05-10T12:46:43.580Z,19.67
2023-05-10T12:49:10.195Z,19.67
2023-05-10T12:51:36.809Z,19.68
2023-05-10T12:54:04.022Z,19.68
2023-05-10T12:56:30.752Z,19.68
2023-05-10T12:58:57.318Z,19.71
2023-05-10T13:01:23.938Z,19.69
2023-05-10T13:03:51.516Z,19.68
2023-05-10T13:06:18.105Z,19.70
2023-05-10T13:08:44.671Z,19.70
2023-05-10T13:11:11.284Z,19.70
2023-05-10T13:13:37.854Z,19.76
2023-05-10T13:16:04.908Z,19.71
2023-05-10T13:18:31.785Z,19.74
2023-05-10T13:20:58.439Z,19.74
2023-05-10T13:23:25.053Z,19.76
2023-05-10T13:25:51.618Z,19.76
2023-05-10T13:28:18.141Z,19.76
2023-05-10T13:30:44.728Z,19.80
2023-05-10T13:33:11.380Z,19.80
2023-05-10T13:35:38.081Z,19.78
2023-05-10T13:38:04.780Z,19.83
2023-05-10T13:40:31.368Z,19.81
2023-05-10T13:42:57.952Z,19.83
2023-05-10T13:45:24.507Z,19.82
2023-05-10T13:47:51.140Z,19.82
2023-05-10T13:50:18.010Z,19.82
2023-05-10T13:52:44.592Z,19.78
2023-05-10T13:55:13.412Z,19.80
2023-05-10T13:57:40.066Z,19.78
2023-05-10T14:00:07.381Z,19.79
2023-05-10T14:02:34.028Z,19.75
2023-05-10T14:05:01.166Z,19.74
2023-05-10T14:07:27.722Z,19.71
2023-05-10T14:09:54.249Z,19.77
2023-05-10T14:12:20.771Z,19.73
2023-05-10T14:14:47.361Z,19.76
2023-05-10T14:17:13.936Z,19.80
2023-05-10T14:19:40.521Z,19.79
2023-05-10T14:22:07.298Z,19.79
2023-05-10T14:24:33.959Z,19.81
2023-05-10T14:27:01.320Z,19.81
2023-05-10T14:29:28.310Z,19.83
2023-05-10T14:31:54.919Z,19.80
2023-05-10T14:34:21.729Z,19.79
2023-05-10T14:36:48.397Z,19.77
2023-05-10T14:39:15.001Z,19.82
2023-05-10T14:41:45.544Z,19.75
2023-05-10T14:44:12.250Z,19.82
2023-05-10T14:46:39.552Z,19.81
2023-05-10T14:49:06.378Z,19.80
2023-05-10T14:51:33.048Z,19.80
2023-05-10T14:53:59.792Z,19.81
2023-05-10T14:56:27.109Z,19.79
2023-05-10T14:58:53.743Z,19.81
2023-05-10T15:01:20.907Z,19.78
2023-05-10T15:03:47.879Z,19.76
2023-05-10T15:06:16.982Z,19.82
2023-05-10T15:08:43.597Z,19.77
2023-05-10T15:11:10.318Z,19.82
2023-05-10T15:13:36.957Z,19.81
2023-05-10T15:16:03.657Z,19.83
2023-05-10T15:18:30.357Z,19.82
2023-05-10T15:20:56.895Z,19.79
2023-05-10T15:23:23.887Z,19.78
2023-05-10T15:25:53.232Z,19.82
2023-05-10T15:28:19.754Z,19.81
2023-05-10T15:30:46.290Z,19.80
2023-05-10T15:33:12.808Z,19.81
2023-05-10T15:35:40.541Z,19.81
2023-05-10T15:38:07.106Z,19.80
2023-05-10T15:40:33.671Z,19.81
2023-05-10T15:43:00.203Z,19.83
2023-05-10T15:45:27.525Z,19.80
2023-05-10T15:47:54.210Z,19.82
2023-05-10T15:50:20.779Z,19.87
2023-05-10T15:52:47.550Z,19.94
2023-05-10T15:55:14.468Z,19.92
2023-05-10T15:57:42.506Z,19.95
2023-05-10T16:00:13.565Z,19.90
2023-05-10T16:02:41.446Z,19.93
2023-05-10T16:05:09.599Z,19.95
2023-05-10T16:07:36.183Z,19.87
2023-05-10T16:10:04.206Z,19.93
2023-05-10T16:12:31.479Z,19.90
2023-05-10T16:14:58.197Z,19.92
2023-05-10T16:17:24.947Z,19.92
2023-05-10T16:19:51.582Z,19.92
2023-05-10T16:22:18.192Z,19.92
2023-05-10T16:24:44.870Z,20.00
2023-05-10T16:27:13.236Z,19.98
2023-05-10T16:29:39.859Z,20.07
2023-05-10T16:32:07.074Z,20.08
2023-05-10T16:34:33.610Z,20.10
2023-05-10T16:37:00.205Z,20.07
2023-05-10T16:39:26.781Z,20.14
2023-05-10T16:41:53.321Z,20.14
2023-05-10T16:44:20.844Z,20.17
2023-05-10T16:46:48.821Z,20.19
2023-05-10T16:49:15.537Z,20.20
2023-05-10T16:51:42.295Z,20.17
2023-05-10T16:54:08.835Z,20.22
2023-05-10T16:56:35.361Z,20.20
2023-05-10T16:59:01.961Z,20.22
2023-05-10T17:01:28.792Z,20.25
2023-05-10T17:03:55.679Z,20.26
2023-05-10T17:06:22.282Z,20.27
2023-05-10T17:08:48.847Z,20.30
2023-05-10T17:11:15.508Z,20.28
2023-05-10T17:13:42.106Z,20.31
2023-05-10T17:16:08.826Z,20.31
2023-05-10T17:18:35.487Z,20.33
2023-05-10T17:21:02.121Z,20.34
2023-05-10T17:23:29.186Z,20.33
2023-05-10T17:25:56.012Z,20.36
2023-05-10T17:28:22.568Z,20.38
2023-05-10T17:30:55.810Z,20.38
2023-05-10T17:33:22.389Z,20.34
2023-05-10T17:35:49.091Z,20.38
2023-05-10T17:38:15.703Z,20.38
2023-05-10T17:40:42.562Z,20.38
2023-05-10T17:43:09.169Z,20.36
2023-05-10T17:45:36.287Z,20.37
2023-05-10T17:48:03.412Z,20.39
2023-05-10T17:50:30.030Z,20.36
2023-05-10T17:52:56.599Z,20.35
2023-05-10T17:55:23.151Z,20.35
2023-05-10T17:57:51.819Z,20.34
2023-05-10T18:00:18.850Z,20.35
2023-05-10T18:02:45.597Z,20.37
2023-05-10T18:05:12.252Z,20.36
2023-05-10T18:07:39.967Z,20.36
2023-05-10T18:10:07.167Z,20.34
2023-05-10T18:12:33.818Z,20.36
2023-05-10T18:15:00.647Z,20.33
2023-05-10T18:17:27.815Z,20.35
2023-05-10T18:19:54.401Z,20.35
2023-05-10T18:22:21.276Z,20.35
2023-05-10T18:24:48.060Z,20.33
2023-05-10T18:27:14.739Z,20.33
2023-05-10T18:29:41.307Z,20.35
2023-05-10T18:32:07.922Z,20.33
2023-05-10T18:34:34.491Z,20.31
2023-05-10T18:37:03.661Z,20.31
2023-05-10T18:39:30.247Z,20.32
2023-05-10T18:41:56.874Z,20.28
2023-05-10T18:44:26.333Z,20.27
2023-05-10T18:46:54.208Z,20.30
2023-05-10T18:49:20.828Z,20.27
2023-05-10T18:51:47.416Z,20.29
2023-05-10T18:54:14.955Z,20.29
2023-05-10T18:56:47.420Z,20.31
2023-05-10T18:59:14.347Z,20.30
2023-05-10T19:01:41.770Z,20.27
2023-05-10T19:04:11.301Z,20.28
2023-05-10T19:06:38.035Z,20.27
2023-05-10T19:09:04.805Z,20.31
2023-05-10T19:11:34.031Z,20.26
2023-05-10T19:14:01.650Z,20.30
2023-05-10T19:16:29.786Z,20.31
2023-05-10T19:18:56.965Z,20.29
2023-05-10T19:21:24.723Z,20.26
2023-05-10T19:23:52.111Z,20.30
2023-05-10T19:26:18.683Z,20.30
2023-05-10T19:28:45.618Z,20.31
2023-05-10T19:31:12.253Z,20.30
2023-05-10T19:33:39.055Z,20.30
2023-05-10T19:36:05.901Z,20.29
2023-05-10T19:38:33.658Z,20.29
2023-05-10T19:41:00.494Z,20.26
2023-05-10T19:43:33.331Z,20.27
2023-05-10T19:46:04.141Z,20.25
2023-05-10T19:48:31.281Z,20.26
2023-05-10T19:51:02.694Z,20.27
2023-05-10T19:53:29.846Z,20.27
2023-05-10T19:55:56.567Z,20.25
2023-05-10T19:58:23.596Z,20.26
2023-05-10T20:00:50.663Z,20.27
2023-05-10T20:03:17.286Z,20.26
2023-05-10T20:05:43.847Z,20.24
2023-05-10T20:08:10.621Z,20.26
2023-05-10T20:10:37.179Z,20.22
2023-05-10T20:13:03.712Z,20.24
2023-05-10T20:15:30.374Z,20.25
2023-05-10T20:17:57.052Z,20.24
2023-05-10T20:20:23.760Z,20.22
2023-05-10T20:22:50.863Z,20.24
2023-05-10T20:25:18.614Z,20.25
2023-05-10T20:27:45.339Z,20.22
2023-05-10T20:30:12.248Z,20.23
2023-05-10T20:32:39.323Z,20.22
2023-05-10T20:35:07.201Z,20.16
2023-05-10T20:37:34.014Z,20.21
2023-05-10T20:40:00.910Z,20.18
2023-05-10T20:42:27.504Z,20.14
2023-05-10T20:44:54.439Z,20.14
2023-05-10T20:47:23.320Z,20.06
2023-05-10T20:49:49.989Z,20.10
2023-05-10T20:52:16.868Z,20.08
2023-05-10T20:54:43.389Z,20.05
2023-05-10T20:57:12.626Z,20.08
2023-05-10T20:59:39.269Z,20.08
2023-05-10T21:02:05.946Z,20.08
2023-05-10T21:04:32.690Z,20.06
2023-05-10T21:06:59.347Z,20.06
2023-05-10T21:09:25.916Z,20.09
2023-05-10T21:11:52.573Z,20.09
2023-05-10T21:14:19.283Z,20.06
2023-05-10T21:16:45.902Z,20.06
2023-05-10T21:19:12.499Z,20.05
2023-05-10T21:21:39.052Z,20.05
2023-05-10T21:24:05.969Z,20.05
2023-05-10T21:26:32.581Z,20.07
2023-05-10T21:28:59.389Z,20.05
2023-05-10T21:31:26.122Z,20.05
2023-05-10T21:33:52.763Z,20.05
2023-05-10T21:36:19.342Z,20.04
2023-05-10T21:38:46.667Z,20.06
2023-05-10T21:41:13.257Z,20.03
2023-05-10T21:43:39.854Z,20.04
2023-05-10T21:46:07.427Z,20.00
2023-05-10T21:48:34.082Z,20.02
2023-05-10T21:51:01.688Z,20.03
2023-05-10T21:53:28.866Z,20.01
2023-05-10T21:55:56.355Z,19.99
2023-05-10T21:58:23.190Z,19.98
2023-05-10T22:00:49.873Z,19.99
2023-05-10T22:03:16.643Z,19.98
2023-05-10T22:05:43.318Z,19.97
2023-05-10T22:08:09.892Z,19.98
2023-05-10T22:10:36.499Z,19.97
2023-05-10T22:13:03.250Z,19.94
2023-05-10T22:15:31.204Z,19.96
2023-05-10T22:17:57.983Z,19.93
2023-05-10T22:20:24.548Z,19.94
2023-05-10T22:22:51.275Z,19.94
2023-05-10T22:25:18.029Z,19.91
2023-05-10T22:27:44.570Z,19.95
2023-05-10T22:30:11.562Z,19.94
2023-05-10T22:32:38.222Z,19.94
2023-05-10T22:35:05.164Z,19.96
2023-05-10T22:37:31.733Z,19.96
2023-05-10T22:39:58.242Z,19.94
2023-05-10T22:42:24.830Z,19.95
2023-05-10T22:44:51.383Z,19.92
2023-05-10T22:47:17.993Z,19.96
2023-05-10T22:49:44.521Z,19.94
2023-05-10T22:52:11.293Z,19.95
2023-05-10T22:54:37.870Z,19.92
2023-05-10T22:57:04.587Z,19.95
2023-05-10T22:59:31.443Z,19.90
2023-05-10T23:01:58.203Z,19.89
2023-05-10T23:04:24.872Z,19.91
2023-05-10T23:06:51.514Z,19.91
2023-05-10T23:09:18.266Z,19.92
2023-05-10T23:11:44.828Z,19.91
2023-05-10T23:14:11.878Z,19.90
2023-05-10T23:16:38.491Z,19.92
2023-05-10T23:19:05.280Z,19.90
2023-05-10T23:21:32.307Z,19.90
2023-05-10T23:23:59.122Z,19.92
2023-05-10T23:26:25.731Z,19.92
2023-05-10T23:28:52.364Z,19.89
2023-05-10T23:31:19.018Z,19.88
2023-05-10T23:33:45.640Z,19.90
2023-05-10T23:36:12.475Z,19.89
2023-05-10T23:38:39.443Z,19.89
2023-05-10T23:41:06.262Z,19.88
2023-05-10T23:43:32.892Z,19.89
2023-05-10T23:45:59.598Z,19.90
2023-05-10T23:48:26.293Z,19.90
2023-05-10T23:50:53.226Z,19.89
2023-05-10T23:53:19.842Z,19.88
2023-05-10T23:55:46.461Z,19.90
2023-05-10T23:58:13.117Z,19.89
